Time;durP1;ratioP1;P1;durP2;ratioP2;P2;SDS_P1;SDS_P2;PMS_P1;PMS_P2;Temp;Humidity;BMP_temperature;BMP_pressure;BME280_temperature;BME280_humidity;BME280_pressure;Samples;Min_cycle;Max_cycle;Signal;HPM_P1;HPM_P2
2022/11/21 00:00:43;;;;;;;24.10;14.65;;;1.30;99.90;;;;;;4914849;29;20043;-61
2022/11/21 00:03:10;;;;;;;20.48;13.95;;;1.40;99.90;;;;;;4891803;29;20050;-62
2022/11/21 00:05:41;;;;;;;22.23;14.60;;;1.40;99.90;;;;;;4914374;29;20056;-63
2022/11/21 00:08:07;;;;;;;21.55;14.63;;;1.40;99.90;;;;;;4919137;29;20048;-62
2022/11/21 00:10:34;;;;;;;22.85;15.30;;;1.40;99.90;;;;;;4904338;29;20102;-63
2022/11/21 00:13:00;;;;;;;23.23;14.98;;;1.40;99.90;;;;;;4894038;29;20122;-63
2022/11/21 00:15:26;;;;;;;22.00;14.88;;;1.30;99.90;;;;;;4903987;29;20050;-62
2022/11/21 00:17:52;;;;;;;22.23;14.93;;;1.30;99.90;;;;;;4917917;29;20112;-62
2022/11/21 00:20:20;;;;;;;22.40;15.32;;;1.30;99.90;;;;;;4917737;29;20044;-62
2022/11/21 00:22:46;;;;;;;21.20;14.77;;;1.30;99.90;;;;;;4889779;29;20068;-62
2022/11/21 00:25:12;;;;;;;24.30;16.20;;;1.40;99.90;;;;;;4916319;29;20464;-62
2022/11/21 00:27:38;;;;;;;22.30;14.30;;;1.30;99.90;;;;;;4916986;29;20047;-62
2022/11/21 00:30:06;;;;;;;23.38;15.60;;;1.40;99.90;;;;;;4913554;29;20056;-63
2022/11/21 00:32:32;;;;;;;25.52;16.40;;;1.40;99.90;;;;;;4916265;29;20575;-62
2022/11/21 00:34:57;;;;;;;22.90;15.95;;;1.40;99.90;;;;;;4904893;29;20049;-62
2022/11/21 00:37:23;;;;;;;22.25;15.18;;;1.40;99.90;;;;;;4886882;29;20058;-62
2022/11/21 00:39:49;;;;;;;23.63;15.27;;;1.40;99.90;;;;;;4912056;29;20155;-62
2022/11/21 00:42:15;;;;;;;32.30;14.90;;;1.30;99.90;;;;;;4917299;29;20041;-63
2022/11/21 00:44:41;;;;;;;21.63;14.40;;;1.40;99.90;;;;;;4906669;29;20143;-62
2022/11/21 00:47:07;;;;;;;21.30;13.98;;;1.30;99.90;;;;;;4903417;29;20051;-64
2022/11/21 00:49:32;;;;;;;20.10;13.55;;;1.30;99.90;;;;;;4903085;29;20048;-61
2022/11/21 00:51:58;;;;;;;20.45;13.48;;;1.30;99.90;;;;;;4917591;29;20064;-62
2022/11/21 00:54:24;;;;;;;21.50;14.25;;;1.20;99.90;;;;;;4903190;29;20058;-62
2022/11/21 00:56:50;;;;;;;20.17;13.25;;;1.20;99.90;;;;;;4912079;29;20048;-62
2022/11/21 00:59:16;;;;;;;21.58;13.75;;;1.20;99.90;;;;;;4904536;29;20058;-62
2022/11/21 01:01:42;;;;;;;23.77;14.35;;;1.10;99.90;;;;;;4893718;29;20048;-62
2022/11/21 01:04:08;;;;;;;22.20;13.68;;;1.20;99.90;;;;;;4875244;29;20075;-62
2022/11/21 01:06:37;;;;;;;23.33;14.43;;;1.10;99.90;;;;;;4896048;29;20083;-62
2022/11/21 01:09:03;;;;;;;19.75;13.40;;;1.10;99.90;;;;;;4899241;29;20090;-61
2022/11/21 01:11:29;;;;;;;22.48;14.93;;;1.10;99.90;;;;;;4896548;29;20139;-63
2022/11/21 01:13:55;;;;;;;22.42;14.25;;;1.00;99.90;;;;;;4908846;29;20043;-62
2022/11/21 01:16:23;;;;;;;21.15;14.02;;;1.00;99.90;;;;;;4905586;29;20527;-63
2022/11/21 01:18:50;;;;;;;19.90;13.85;;;0.90;99.90;;;;;;4894291;29;20064;-63
2022/11/21 01:21:29;;;;;;;20.85;13.90;;;0.90;99.90;;;;;;4915626;29;20059;-61
2022/11/21 01:23:57;;;;;;;19.42;13.85;;;0.80;99.90;;;;;;4915927;29;20052;-62
2022/11/21 01:26:26;;;;;;;21.10;14.07;;;0.80;99.90;;;;;;4922048;29;20596;-62
2022/11/21 01:28:52;;;;;;;20.98;13.60;;;0.80;99.90;;;;;;4908853;29;20058;-62
2022/11/21 01:31:24;;;;;;;22.60;13.60;;;0.80;99.90;;;;;;4876002;29;20048;-62
2022/11/21 01:33:50;;;;;;;19.83;13.50;;;0.70;99.90;;;;;;4917022;29;20811;-62
2022/11/21 01:36:18;;;;;;;21.48;14.05;;;0.60;99.90;;;;;;4919523;29;20693;-62
2022/11/21 01:38:46;;;;;;;21.10;13.55;;;0.60;99.90;;;;;;4924531;29;20095;-63
2022/11/21 01:41:15;;;;;;;21.63;13.30;;;0.60;99.90;;;;;;4937364;29;20094;-62
2022/11/21 01:43:41;;;;;;;22.63;14.10;;;0.50;99.90;;;;;;4937932;28;20106;-62
2022/11/21 01:46:06;;;;;;;20.10;13.40;;;0.50;99.90;;;;;;4939603;29;20051;-63
2022/11/21 01:48:38;;;;;;;19.55;13.35;;;0.50;99.90;;;;;;4937919;29;20051;-62
2022/11/21 01:51:34;;;;;;;22.67;15.00;;;0.40;99.90;;;;;;4931555;29;20043;-63
2022/11/21 01:54:12;;;;;;;20.40;13.52;;;0.40;99.90;;;;;;4933019;29;20147;-60
2022/11/21 01:56:44;;;;;;;19.70;12.88;;;0.40;99.90;;;;;;4936332;28;20133;-62
2022/11/21 01:59:18;;;;;;;23.40;14.40;;;0.30;99.90;;;;;;4937172;29;20051;-62
2022/11/21 02:01:45;;;;;;;22.15;14.52;;;0.30;99.90;;;;;;4940984;28;20055;-62
2022/11/21 02:04:11;;;;;;;20.77;13.95;;;0.30;99.90;;;;;;4938704;28;20058;-62
2022/11/21 02:06:37;;;;;;;20.25;14.15;;;0.20;99.90;;;;;;4935537;29;20058;-62
2022/11/21 02:09:03;;;;;;;22.15;13.68;;;0.20;99.90;;;;;;4939308;29;20929;-62
2022/11/21 02:11:49;;;;;;;25.55;14.43;;;0.20;99.90;;;;;;4906143;29;20086;-63
2022/11/21 02:14:15;;;;;;;21.45;14.45;;;0.10;99.90;;;;;;4938956;29;20043;-62
2022/11/21 02:16:42;;;;;;;21.27;14.07;;;0.10;99.90;;;;;;4907850;28;20051;-62
2022/11/21 02:19:14;;;;;;;23.10;14.50;;;0.00;99.90;;;;;;4918954;29;20055;-62
2022/11/21 02:21:58;;;;;;;22.30;14.00;;;0.00;99.90;;;;;;4928330;29;20059;-63
2022/11/21 02:24:44;;;;;;;24.17;15.13;;;-0.10;99.90;;;;;;4926430;29;20513;-62
2022/11/21 02:27:10;;;;;;;22.05;15.27;;;-0.10;99.90;;;;;;4945700;28;20082;-62
2022/11/21 02:29:38;;;;;;;22.95;15.63;;;-0.10;99.90;;;;;;4918818;29;20138;-61
2022/11/21 02:32:04;;;;;;;21.63;13.80;;;-0.10;99.90;;;;;;4916492;28;20047;-59
2022/11/21 02:34:31;;;;;;;22.45;14.02;;;-0.20;99.90;;;;;;4924063;28;20071;-62
2022/11/21 02:36:57;;;;;;;21.98;14.00;;;-0.20;99.90;;;;;;4932344;29;20090;-62
2022/11/21 02:39:28;;;;;;;21.50;13.52;;;-0.20;99.90;;;;;;4928632;29;20967;-62
2022/11/21 02:42:25;;;;;;;21.75;14.13;;;-0.30;99.90;;;;;;4934907;28;20512;-62
2022/11/21 02:45:05;;;;;;;21.98;14.65;;;-0.30;99.90;;;;;;4933557;29;20125;-62
2022/11/21 02:47:32;;;;;;;20.80;13.02;;;-0.30;99.90;;;;;;4935745;28;20079;-62
2022/11/21 02:50:04;;;;;;;24.45;13.93;;;-0.40;99.90;;;;;;4935455;28;20115;-62
2022/11/21 02:52:30;;;;;;;24.15;15.57;;;-0.40;99.90;;;;;;4950219;28;20409;-62
2022/11/21 02:54:55;;;;;;;22.38;14.57;;;-0.40;99.90;;;;;;4933937;29;20043;-62
2022/11/21 02:57:21;;;;;;;26.40;15.52;;;-0.40;99.90;;;;;;4925200;29;20047;-61
2022/11/21 02:59:47;;;;;;;25.75;16.33;;;-0.40;99.90;;;;;;4933115;28;20043;-63
2022/11/21 03:02:13;;;;;;;26.80;15.25;;;-0.50;99.90;;;;;;4933446;29;20051;-62
2022/11/21 03:04:39;;;;;;;23.88;15.77;;;-0.50;99.90;;;;;;4928924;28;20067;-63
2022/11/21 03:07:04;;;;;;;23.48;15.50;;;-0.50;99.90;;;;;;4933557;29;20991;-62
2022/11/21 03:09:30;;;;;;;23.02;14.77;;;-0.40;99.90;;;;;;4927917;29;20047;-62
2022/11/21 03:11:56;;;;;;;22.83;15.25;;;-0.60;99.90;;;;;;4935956;29;20047;-63
2022/11/21 03:14:22;;;;;;;24.67;15.10;;;-0.60;99.90;;;;;;4937629;29;20394;-62
2022/11/21 03:16:47;;;;;;;24.88;15.35;;;-0.60;99.90;;;;;;4940858;29;20050;-62
2022/11/21 03:19:13;;;;;;;24.15;16.10;;;-0.60;99.90;;;;;;4933809;28;20786;-63
2022/11/21 03:21:39;;;;;;;25.42;16.60;;;-0.70;99.90;;;;;;4939220;29;20062;-62
2022/11/21 03:24:05;;;;;;;24.60;15.85;;;-0.60;99.90;;;;;;4934846;29;20122;-61
2022/11/21 03:26:31;;;;;;;28.55;17.98;;;-0.60;99.90;;;;;;4936141;29;20087;-62
2022/11/21 03:28:57;;;;;;;25.45;17.17;;;-0.60;99.90;;;;;;4918261;29;20470;-62
2022/11/21 03:31:23;;;;;;;27.35;16.98;;;-0.70;99.90;;;;;;4919213;29;20762;-62
2022/11/21 03:33:49;;;;;;;31.38;19.38;;;-0.60;99.90;;;;;;4932659;28;20086;-62
2022/11/21 03:36:14;;;;;;;27.77;16.88;;;-0.60;99.90;;;;;;4940116;28;20058;-62
2022/11/21 03:38:40;;;;;;;29.25;17.65;;;-0.60;99.90;;;;;;4930164;28;20145;-62
2022/11/21 03:41:28;;;;;;;29.33;17.60;;;-0.70;99.90;;;;;;4917242;29;20612;-62
2022/11/21 03:43:52;;;;;;;26.92;16.73;;;-0.70;99.90;;;;;;4896727;29;20421;-63
2022/11/21 03:46:18;;;;;;;26.50;17.80;;;-0.70;99.90;;;;;;4892450;29;20051;-62
2022/11/21 03:48:43;;;;;;;26.83;17.02;;;-0.70;99.90;;;;;;4906846;29;20154;-63
2022/11/21 03:51:09;;;;;;;28.63;17.13;;;-0.70;99.90;;;;;;4919187;29;20040;-62
2022/11/21 03:53:35;;;;;;;24.70;16.27;;;-0.70;99.90;;;;;;4892823;29;20051;-62
2022/11/21 03:56:01;;;;;;;30.02;16.90;;;-0.70;99.90;;;;;;4896778;29;20478;-62
2022/11/21 03:58:26;;;;;;;26.40;16.98;;;-0.70;99.90;;;;;;4893923;29;20135;-62
2022/11/21 04:00:52;;;;;;;30.30;18.98;;;-0.80;99.90;;;;;;4904675;29;20177;-62
2022/11/21 04:03:18;;;;;;;29.48;18.88;;;-0.80;99.90;;;;;;4917356;29;20410;-62
2022/11/21 04:05:44;;;;;;;30.42;18.40;;;-0.80;99.90;;;;;;4908280;29;21026;-62
2022/11/21 04:08:10;;;;;;;31.42;19.63;;;-0.80;99.90;;;;;;4903918;29;20082;-62
2022/11/21 04:10:35;;;;;;;32.17;19.15;;;-0.80;99.90;;;;;;4906611;29;20139;-63
2022/11/21 04:13:02;;;;;;;32.22;19.23;;;-0.80;99.90;;;;;;4879095;29;20174;-62
2022/11/21 04:15:27;;;;;;;31.92;19.55;;;-0.90;99.90;;;;;;4893830;29;20932;-62
2022/11/21 04:17:53;;;;;;;30.67;19.00;;;-0.90;99.90;;;;;;4904013;29;20154;-62
2022/11/21 04:20:19;;;;;;;32.28;19.20;;;-0.90;99.90;;;;;;4888802;29;20052;-62
2022/11/21 04:22:45;;;;;;;35.15;18.90;;;-0.90;99.90;;;;;;4920846;29;20047;-62
2022/11/21 04:25:12;;;;;;;35.90;21.13;;;-0.90;99.90;;;;;;4914750;29;20722;-63
2022/11/21 04:27:38;;;;;;;38.53;21.52;;;-1.00;99.90;;;;;;4904945;29;20086;-63
2022/11/21 04:30:05;;;;;;;35.83;21.30;;;-0.90;99.90;;;;;;4916433;29;20497;-62
2022/11/21 04:32:31;;;;;;;42.67;23.92;;;-0.90;99.90;;;;;;4885984;29;20044;-63
2022/11/21 04:34:57;;;;;;;36.40;21.48;;;-0.90;99.90;;;;;;4894197;29;20422;-62
2022/11/21 04:37:23;;;;;;;41.78;23.70;;;-0.80;99.90;;;;;;4918401;29;20070;-62
2022/11/21 04:39:48;;;;;;;38.10;23.10;;;-0.80;99.90;;;;;;4914889;29;20066;-63
2022/11/21 04:42:14;;;;;;;39.03;23.02;;;-0.80;99.90;;;;;;4913460;29;20078;-61
2022/11/21 04:44:40;;;;;;;37.30;21.80;;;-0.70;99.90;;;;;;4901767;29;20055;-62
2022/11/21 04:47:06;;;;;;;38.50;22.48;;;-0.70;99.90;;;;;;4918272;29;20043;-61
2022/11/21 04:49:32;;;;;;;36.92;21.58;;;-0.70;99.90;;;;;;4917836;29;20082;-62
2022/11/21 04:51:58;;;;;;;36.80;22.48;;;-0.70;99.90;;;;;;4900930;29;20469;-62
2022/11/21 04:54:24;;;;;;;39.60;23.15;;;-0.70;99.90;;;;;;4918013;29;20048;-61
2022/11/21 04:56:49;;;;;;;37.80;23.08;;;-0.60;99.90;;;;;;4913737;29;20193;-63
2022/11/21 04:59:15;;;;;;;34.63;20.77;;;-0.60;99.90;;;;;;4893028;29;20056;-63
2022/11/21 05:01:41;;;;;;;37.10;21.38;;;-0.60;99.90;;;;;;4893321;29;20119;-63
2022/11/21 05:04:06;;;;;;;37.30;22.05;;;-0.60;99.90;;;;;;4916859;29;20048;-63
2022/11/21 05:06:32;;;;;;;34.80;20.67;;;-0.60;99.90;;;;;;4915065;29;20048;-63
2022/11/21 05:08:58;;;;;;;33.50;20.20;;;-0.60;99.90;;;;;;4911059;29;20138;-62
2022/11/21 05:14:08;;;;;;;34.15;20.58;;;-0.60;99.90;;;;;;4914136;29;20044;-63
2022/11/21 05:16:34;;;;;;;33.70;19.75;;;-0.60;99.90;;;;;;4888901;29;20088;-63
2022/11/21 05:19:00;;;;;;;35.38;20.23;;;-0.70;99.90;;;;;;4901422;29;20484;-62
2022/11/21 05:21:25;;;;;;;33.83;20.40;;;-0.70;99.90;;;;;;4918278;29;20066;-63
2022/11/21 05:23:51;;;;;;;35.63;20.95;;;-0.70;99.90;;;;;;4903050;29;20119;-63
2022/11/21 05:26:17;;;;;;;34.13;21.05;;;-0.70;99.90;;;;;;4918101;29;20122;-62
2022/11/21 05:28:43;;;;;;;32.70;19.58;;;-0.80;99.90;;;;;;4916181;29;20048;-62
2022/11/21 05:31:09;;;;;;;34.03;20.35;;;-0.80;99.90;;;;;;4869367;29;20537;-63
2022/11/21 05:33:34;;;;;;;34.22;20.27;;;-0.80;99.90;;;;;;4915953;29;20052;-63
2022/11/21 05:36:00;;;;;;;37.83;21.42;;;-0.80;99.90;;;;;;4881384;29;20050;-63
2022/11/21 05:38:26;;;;;;;34.45;21.25;;;-0.70;99.90;;;;;;4908274;29;20552;-63
2022/11/21 05:40:52;;;;;;;34.40;20.80;;;-0.80;99.90;;;;;;4899966;29;20908;-62
2022/11/21 05:46:02;;;;;;;35.33;21.05;;;-0.80;99.90;;;;;;4908717;29;20052;-62
2022/11/21 05:48:28;;;;;;;34.55;20.23;;;-0.90;99.90;;;;;;4878512;29;20541;-60
2022/11/21 05:50:54;;;;;;;38.67;20.67;;;-0.90;99.90;;;;;;4899282;29;20048;-63
2022/11/21 05:53:20;;;;;;;32.58;19.70;;;-0.90;99.90;;;;;;4915948;29;20104;-63
2022/11/21 05:55:46;;;;;;;35.60;20.58;;;-0.90;99.90;;;;;;4911242;29;20134;-63
2022/11/21 05:58:12;;;;;;;34.67;20.27;;;-0.90;99.90;;;;;;4908466;29;20066;-63
2022/11/21 06:00:38;;;;;;;33.13;20.20;;;-0.90;99.90;;;;;;4901842;29;20058;-63
2022/11/21 06:05:49;;;;;;;34.40;20.88;;;-1.00;99.90;;;;;;4897925;29;20499;-62
2022/11/21 06:08:15;;;;;;;38.95;22.25;;;-1.00;99.90;;;;;;4913445;29;20055;-62
2022/11/21 06:10:41;;;;;;;40.25;23.23;;;-1.00;99.90;;;;;;4913623;29;20055;-62
2022/11/21 06:13:20;;;;;;;37.60;22.10;;;-1.10;99.90;;;;;;4910652;29;20153;-63
2022/11/21 06:15:52;;;;;;;37.83;21.08;;;-1.00;99.90;;;;;;4915015;29;20051;-63
2022/11/21 06:18:18;;;;;;;36.05;21.23;;;-1.10;99.90;;;;;;4917525;29;20052;-63
2022/11/21 06:20:44;;;;;;;30.70;19.80;;;-1.10;99.90;;;;;;4898142;29;22497;-62
2022/11/21 06:23:11;;;;;;;37.13;20.85;;;-1.20;99.90;;;;;;4912186;29;20050;-64
2022/11/21 06:25:37;;;;;;;34.85;20.33;;;-1.20;99.90;;;;;;4915659;29;20100;-63
2022/11/21 06:28:03;;;;;;;34.55;19.92;;;-1.20;99.90;;;;;;4912140;29;20183;-62
2022/11/21 06:30:29;;;;;;;34.70;20.40;;;-1.30;99.90;;;;;;4894154;29;20055;-63
2022/11/21 06:32:54;;;;;;;37.13;20.75;;;-1.30;99.90;;;;;;4912358;29;20059;-63
2022/11/21 06:35:20;;;;;;;33.75;20.52;;;-1.30;99.90;;;;;;4911634;29;20059;-63
2022/11/21 06:37:46;;;;;;;31.98;19.60;;;-1.30;99.90;;;;;;4874948;29;20091;-63
2022/11/21 06:40:12;;;;;;;35.03;20.38;;;-1.30;99.90;;;;;;4905536;29;20134;-63
2022/11/21 06:42:37;;;;;;;37.58;21.40;;;-1.30;99.90;;;;;;4904185;29;20059;-62
2022/11/21 06:45:04;;;;;;;34.38;19.38;;;-1.30;99.90;;;;;;4880385;29;20182;-62
2022/11/21 06:47:33;;;;;;;37.25;20.67;;;-1.30;99.90;;;;;;4888772;29;20526;-63
2022/11/21 06:49:59;;;;;;;33.33;20.67;;;-1.20;99.90;;;;;;4907952;29;20055;-63
2022/11/21 06:52:26;;;;;;;35.92;21.23;;;-1.30;99.90;;;;;;4885821;29;20158;-64
2022/11/21 06:54:51;;;;;;;36.78;21.70;;;-1.30;99.90;;;;;;4907212;29;20054;-63
2022/11/21 06:57:17;;;;;;;36.47;20.55;;;-1.30;99.90;;;;;;4911031;29;20056;-62
2022/11/21 06:59:43;;;;;;;34.38;21.30;;;-1.30;99.90;;;;;;4917466;29;20508;-63
2022/11/21 07:02:12;;;;;;;37.20;20.77;;;-1.30;99.90;;;;;;4913284;29;20051;-61
2022/11/21 07:04:38;;;;;;;33.20;20.65;;;-1.30;99.90;;;;;;4885929;29;20051;-61
2022/11/21 07:07:04;;;;;;;36.38;20.83;;;-1.30;99.90;;;;;;4892730;29;20047;-58
2022/11/21 07:09:30;;;;;;;39.33;21.58;;;-1.30;99.90;;;;;;4909323;29;20967;-59
2022/11/21 07:13:20;;;;;;;40.70;22.23;;;-1.30;99.90;;;;;;4909712;29;20043;-58
2022/11/21 07:14:41;;;;;;;37.80;21.02;;;-1.30;99.90;;;;;;4920651;29;20048;-59
2022/11/21 07:17:10;;;;;;;39.20;22.45;;;-1.30;99.90;;;;;;4921004;29;20060;-58
2022/11/21 07:19:36;;;;;;;37.65;21.95;;;-1.30;99.90;;;;;;4909984;29;20047;-59
2022/11/21 07:22:02;;;;;;;37.88;21.48;;;-1.20;99.90;;;;;;4912010;29;20048;-57
2022/11/21 07:24:28;;;;;;;38.38;21.55;;;-1.30;99.90;;;;;;4888151;29;20062;-57
2022/11/21 07:26:53;;;;;;;34.20;21.33;;;-1.20;99.90;;;;;;4877618;29;20052;-57
2022/11/21 07:29:19;;;;;;;41.22;22.20;;;-1.20;99.90;;;;;;4909814;29;20372;-58
2022/11/21 07:31:45;;;;;;;38.55;22.00;;;-1.20;99.90;;;;;;4906901;29;20058;-58
2022/11/21 07:34:11;;;;;;;38.85;21.27;;;-1.20;99.90;;;;;;4908832;29;20071;-57
2022/11/21 07:36:37;;;;;;;42.08;23.08;;;-1.20;99.90;;;;;;4912140;29;20410;-59
2022/11/21 07:39:03;;;;;;;39.22;22.50;;;-1.20;99.90;;;;;;4920444;29;20502;-58
2022/11/21 07:41:28;;;;;;;41.85;23.52;;;-1.20;99.90;;;;;;4918779;29;20051;-59
2022/11/21 07:43:54;;;;;;;42.38;22.95;;;-1.10;99.90;;;;;;4919682;29;20067;-57
2022/11/21 07:46:20;;;;;;;44.42;24.48;;;-1.10;99.90;;;;;;4916399;29;20134;-58
2022/11/21 07:48:46;;;;;;;47.45;25.15;;;-1.10;99.90;;;;;;4854579;29;20052;-58
2022/11/21 07:51:12;;;;;;;43.20;24.60;;;-1.00;99.90;;;;;;4909185;29;20044;-59
2022/11/21 07:53:37;;;;;;;48.40;25.20;;;-1.00;99.90;;;;;;4890390;29;20055;-58
2022/11/21 07:56:03;;;;;;;43.97;25.35;;;-1.00;99.90;;;;;;4908593;29;20051;-58
2022/11/21 07:58:29;;;;;;;42.83;23.67;;;-1.00;99.90;;;;;;4909618;29;20060;-58
2022/11/21 08:00:56;;;;;;;43.28;24.55;;;-0.90;99.90;;;;;;4891251;29;20047;-58
2022/11/21 08:03:24;;;;;;;43.08;23.58;;;-0.90;99.90;;;;;;4898661;29;20048;-58
2022/11/21 08:05:49;;;;;;;44.22;24.63;;;-0.80;99.90;;;;;;4915632;29;20055;-58
2022/11/21 08:08:15;;;;;;;42.63;23.00;;;-0.80;99.90;;;;;;4915841;29;20044;-56
2022/11/21 08:10:43;;;;;;;39.83;22.63;;;-0.80;99.90;;;;;;4907338;29;20048;-57
2022/11/21 08:13:09;;;;;;;41.60;22.50;;;-0.70;99.90;;;;;;4907135;29;20083;-59
2022/11/21 08:15:36;;;;;;;45.00;24.15;;;-0.70;99.90;;;;;;4908440;29;20044;-58
2022/11/21 08:18:14;;;;;;;43.17;23.75;;;-0.70;99.90;;;;;;4911081;29;20650;-58
2022/11/21 08:20:40;;;;;;;39.65;23.02;;;-0.60;99.90;;;;;;4909613;29;20527;-58
2022/11/21 08:23:06;;;;;;;43.40;23.63;;;-0.60;99.90;;;;;;4911779;29;20047;-57
2022/11/21 08:25:35;;;;;;;39.67;21.85;;;-0.50;99.90;;;;;;4907328;29;21825;-58
2022/11/21 08:28:01;;;;;;;43.20;23.70;;;-0.50;99.90;;;;;;4910506;29;20059;-58
2022/11/21 08:30:27;;;;;;;38.35;22.25;;;-0.40;99.90;;;;;;4896140;29;20044;-58
2022/11/21 08:32:53;;;;;;;39.50;23.50;;;-0.30;99.90;;;;;;4893926;29;20496;-58
2022/11/21 08:35:19;;;;;;;39.20;22.50;;;-0.30;99.90;;;;;;4908398;29;20737;-58
2022/11/21 08:37:44;;;;;;;39.97;22.25;;;-0.20;99.90;;;;;;4911347;29;20051;-59
2022/11/21 08:40:10;;;;;;;39.17;21.80;;;-0.10;99.90;;;;;;4910784;29;20082;-57
2022/11/21 08:42:36;;;;;;;40.33;22.58;;;0.00;99.90;;;;;;4885580;29;20043;-57
2022/11/21 08:45:04;;;;;;;40.10;23.10;;;0.00;99.90;;;;;;4888189;29;20058;-57
2022/11/21 08:47:32;;;;;;;38.28;23.30;;;0.10;99.90;;;;;;4895675;29;20047;-56
2022/11/21 08:49:58;;;;;;;41.08;23.15;;;0.20;99.90;;;;;;4909546;29;20051;-56
2022/11/21 08:52:24;;;;;;;40.40;22.73;;;0.30;99.90;;;;;;4909633;29;20142;-55
2022/11/21 08:54:49;;;;;;;39.15;23.55;;;0.30;99.90;;;;;;4914458;29;20055;-56
2022/11/21 08:57:15;;;;;;;37.63;22.50;;;0.40;99.90;;;;;;4910351;29;20071;-58
2022/11/21 08:59:41;;;;;;;37.92;21.45;;;0.40;99.90;;;;;;4893550;29;20466;-57
2022/11/21 09:02:09;;;;;;;37.08;21.70;;;0.50;99.90;;;;;;4909613;29;20546;-57
2022/11/21 09:04:35;;;;;;;35.50;21.08;;;0.40;99.90;;;;;;4909487;29;20137;-55
2022/11/21 09:07:02;;;;;;;37.03;21.17;;;0.50;99.90;;;;;;4910504;29;20878;-57
2022/11/21 09:09:28;;;;;;;37.90;21.23;;;0.60;99.90;;;;;;4910929;29;20048;-57
2022/11/21 09:11:54;;;;;;;34.80;21.35;;;0.60;99.90;;;;;;4910644;29;20048;-57
2022/11/21 09:19:50;;;;;;;34.80;20.42;;;0.80;99.90;;;;;;4889683;29;20138;-57
2022/11/21 09:22:16;;;;;;;35.05;21.10;;;0.80;99.90;;;;;;4908958;29;20133;-57
2022/11/21 09:24:42;;;;;;;34.13;20.90;;;0.90;99.90;;;;;;4910129;29;20127;-57
2022/11/21 09:27:07;;;;;;;34.05;21.08;;;0.90;99.90;;;;;;4908071;29;20210;-57
2022/11/21 09:29:33;;;;;;;34.17;21.00;;;0.90;99.90;;;;;;4909583;29;20047;-56
2022/11/21 09:31:59;;;;;;;35.15;21.38;;;1.00;99.90;;;;;;4909531;29;20386;-57
2022/11/21 09:34:25;;;;;;;33.55;21.45;;;1.10;99.90;;;;;;4889235;29;20356;-57
2022/11/21 09:36:51;;;;;;;40.30;21.48;;;1.00;99.90;;;;;;4922638;29;20059;-57
2022/11/21 09:39:19;;;;;;;38.40;21.52;;;1.10;99.90;;;;;;4908805;29;20067;-57
2022/11/21 09:41:54;;;;;;;36.22;21.30;;;1.10;99.90;;;;;;4934643;28;20158;-57
2022/11/21 09:44:49;;;;;;;32.60;20.25;;;1.20;99.90;;;;;;4934222;28;22000;-58
2022/11/21 09:47:43;;;;;;;34.83;21.70;;;1.20;99.90;;;;;;4932148;28;20129;-54
2022/11/21 09:50:11;;;;;;;36.97;21.20;;;1.30;99.90;;;;;;4930839;28;20148;-57
2022/11/21 09:52:48;;;;;;;34.47;20.50;;;1.30;99.90;;;;;;4931793;28;20450;-57
2022/11/21 09:55:17;;;;;;;31.42;20.10;;;1.40;99.90;;;;;;4939022;29;20130;-57
2022/11/21 09:57:46;;;;;;;36.05;21.38;;;1.40;99.90;;;;;;4936063;29;20058;-58
2022/11/21 10:00:19;;;;;;;33.15;20.60;;;1.50;99.90;;;;;;4935867;28;20088;-57
2022/11/21 10:02:45;;;;;;;32.10;20.33;;;1.50;99.90;;;;;;4931990;28;20189;-58
2022/11/21 10:05:14;;;;;;;33.58;20.65;;;1.60;99.90;;;;;;4930466;28;20490;-56
2022/11/21 10:07:42;;;;;;;33.75;20.45;;;1.70;99.90;;;;;;4930209;29;20063;-59
2022/11/21 10:10:57;;;;;;;32.17;19.05;;;1.80;99.90;;;;;;4932341;28;20047;-56
2022/11/21 10:13:50;;;;;;;31.92;20.52;;;2.00;99.90;;;;;;4930249;28;20112;-58
2022/11/21 10:16:37;;;;;;;31.73;20.15;;;2.10;99.90;;;;;;4931511;28;20085;-59
2022/11/21 10:19:18;;;;;;;26.63;17.75;;;2.30;99.90;;;;;;4932357;28;20166;-56
2022/11/21 10:22:05;;;;;;;29.90;18.42;;;2.50;99.90;;;;;;4933040;28;20056;-57
2022/11/21 10:24:54;;;;;;;30.92;18.00;;;2.60;99.90;;;;;;4931969;28;20710;-58
2022/11/21 10:27:36;;;;;;;28.65;16.98;;;2.70;99.90;;;;;;4926447;28;20060;-57
2022/11/21 10:30:06;;;;;;;25.08;16.67;;;2.70;99.90;;;;;;4933489;28;20040;-55
2022/11/21 10:33:02;;;;;;;26.40;18.15;;;2.70;99.90;;;;;;4932004;28;20048;-57
2022/11/21 10:35:37;;;;;;;30.13;18.48;;;2.70;99.90;;;;;;4930764;28;20055;-59
2022/11/21 10:38:22;;;;;;;28.17;17.92;;;2.80;99.90;;;;;;4934142;28;20438;-58
2022/11/21 10:41:03;;;;;;;29.27;17.92;;;2.80;99.90;;;;;;4912047;29;20089;-58
2022/11/21 10:46:34;;;;;;;27.42;16.98;;;2.90;99.90;;;;;;4912416;29;20064;-60
2022/11/21 10:49:03;;;;;;;26.77;18.05;;;2.80;99.90;;;;;;4912850;29;20146;-59
2022/11/21 10:51:47;;;;;;;28.80;17.85;;;2.70;99.90;;;;;;4912306;29;20490;-58
2022/11/21 10:54:31;;;;;;;27.40;17.63;;;2.70;99.90;;;;;;4895459;29;20519;-59
2022/11/21 10:57:14;;;;;;;28.50;18.42;;;2.70;99.90;;;;;;4915348;29;20054;-57
2022/11/21 10:59:40;;;;;;;27.67;18.15;;;2.60;99.90;;;;;;4913658;29;20079;-59
2022/11/21 11:02:12;;;;;;;26.75;17.50;;;2.60;99.90;;;;;;4919583;29;20127;-57
2022/11/21 11:04:38;;;;;;;29.92;18.67;;;2.70;99.90;;;;;;4911445;29;20047;-58
2022/11/21 11:07:20;;;;;;;26.98;17.98;;;2.70;99.90;;;;;;4916682;29;20040;-57
2022/11/21 11:09:46;;;;;;;24.75;15.80;;;2.70;99.90;;;;;;4917132;29;20542;-56
2022/11/21 11:15:24;;;;;;;23.77;16.77;;;2.90;99.90;;;;;;4873052;29;20071;-58
2022/11/21 11:17:56;;;;;;;25.58;16.85;;;3.10;99.90;;;;;;4880744;29;20486;-57
2022/11/21 11:20:28;;;;;;;24.55;16.10;;;3.20;99.90;;;;;;4911520;29;20471;-56
2022/11/21 11:22:54;;;;;;;23.88;15.68;;;3.40;99.90;;;;;;4911697;29;20083;-58
2022/11/21 11:25:21;;;;;;;24.40;16.48;;;3.50;99.90;;;;;;4897717;29;20245;-57
2022/11/21 11:27:47;;;;;;;22.42;15.63;;;3.60;99.90;;;;;;4912675;29;20051;-57
2022/11/21 11:30:15;;;;;;;24.02;15.68;;;3.70;99.90;;;;;;4913175;29;20050;-57
2022/11/21 11:32:41;;;;;;;21.38;14.52;;;3.80;99.90;;;;;;4914514;29;20055;-57
2022/11/21 11:35:16;;;;;;;22.60;14.32;;;3.90;99.90;;;;;;4894251;29;20688;-58
2022/11/21 11:37:48;;;;;;;21.83;14.63;;;4.00;99.90;;;;;;4912028;29;20119;-57
2022/11/21 11:40:36;;;;;;;21.60;14.52;;;4.00;99.90;;;;;;4913243;29;20761;-58
2022/11/21 11:49:04;;;;;;;19.23;12.57;;;4.30;99.90;;;;;;4897426;29;20058;-58
2022/11/21 11:51:41;;;;;;;21.15;13.55;;;4.30;99.90;;;;;;4921529;29;20051;-58
2022/11/21 11:54:31;;;;;;;17.52;12.43;;;4.40;99.90;;;;;;4892034;29;20051;-59
2022/11/21 11:56:58;;;;;;;19.90;12.48;;;4.40;99.90;;;;;;4914744;29;20535;-58
2022/11/21 11:59:36;;;;;;;17.40;12.52;;;4.40;99.90;;;;;;4914795;29;20060;-57
2022/11/21 12:02:31;;;;;;;20.02;12.18;;;4.50;99.90;;;;;;4912888;29;20067;-59
2022/11/21 12:05:04;;;;;;;20.45;12.30;;;4.60;99.90;;;;;;4913652;29;20055;-57
2022/11/21 12:07:50;;;;;;;17.73;12.60;;;4.60;99.90;;;;;;4888230;29;20047;-56
2022/11/21 12:10:22;;;;;;;16.15;11.43;;;4.60;99.90;;;;;;4913900;29;20052;-58
2022/11/21 12:13:16;;;;;;;17.85;11.98;;;4.60;99.90;;;;;;4915233;29;20510;-58
2022/11/21 12:15:53;;;;;;;19.20;12.70;;;4.60;99.90;;;;;;4911597;29;20134;-58
2022/11/21 12:18:19;;;;;;;17.58;12.10;;;4.60;99.90;;;;;;4915918;29;20051;-56
2022/11/21 12:20:50;;;;;;;18.48;12.63;;;4.60;99.90;;;;;;4914030;29;20071;-58
2022/11/21 12:23:17;;;;;;;19.63;13.00;;;4.60;99.90;;;;;;4913979;29;20051;-58
2022/11/21 12:26:17;;;;;;;18.98;12.35;;;4.60;99.90;;;;;;4912030;29;20399;-57
2022/11/21 12:28:43;;;;;;;17.70;13.00;;;4.60;99.90;;;;;;4913265;29;20052;-58
2022/11/21 12:31:21;;;;;;;18.92;12.13;;;4.60;99.90;;;;;;4915769;29;20055;-58
2022/11/21 12:34:19;;;;;;;17.20;12.57;;;4.60;99.90;;;;;;4913769;29;20059;-58
2022/11/21 12:37:01;;;;;;;18.70;12.85;;;4.50;99.90;;;;;;4852418;29;20095;-58
2022/11/21 12:39:58;;;;;;;21.05;12.10;;;4.40;99.90;;;;;;4912151;29;20649;-55
2022/11/21 12:42:57;;;;;;;17.58;12.18;;;4.30;99.90;;;;;;4898873;29;20416;-55
2022/11/21 12:45:47;;;;;;;18.95;12.43;;;4.30;99.90;;;;;;4907997;29;20063;-54
2022/11/21 12:55:05;;;;;;;18.52;12.38;;;4.20;99.90;;;;;;4888383;29;20503;-57
2022/11/21 12:58:09;;;;;;;16.33;11.80;;;4.20;99.90;;;;;;4901189;29;21031;-55
2022/11/21 13:00:46;;;;;;;19.13;12.32;;;4.20;99.90;;;;;;4905942;29;20126;-56
2022/11/21 13:03:55;;;;;;;18.00;12.05;;;4.20;99.90;;;;;;4908660;29;20032;-55
2022/11/21 13:06:27;;;;;;;18.35;11.40;;;4.30;99.90;;;;;;4870493;29;20052;-55
2022/11/21 13:08:56;;;;;;;17.27;11.20;;;4.30;99.90;;;;;;4906834;29;20047;-55
2022/11/21 13:12:10;;;;;;;16.25;10.45;;;4.30;99.90;;;;;;4911958;29;20048;-55
2022/11/21 13:14:43;;;;;;;15.02;11.20;;;4.30;99.90;;;;;;4913302;29;20411;-55
2022/11/21 13:17:38;;;;;;;15.07;10.48;;;4.30;99.90;;;;;;4915336;29;20051;-55
2022/11/21 13:20:39;;;;;;;15.93;10.88;;;4.30;99.90;;;;;;4923140;29;20054;-56